DLH8EJ ENBR-EDDF
Flight info
| Callsign | DLH8EJ |
|---|---|
| Flight time | 1h 42m |
| Altitude | 37000 |
| Route | TUXIL DCT ZOL DCT GREFI DCT SOGPO DCT DIXAT DIXAT1A |
| Aircraft | A321/M-SDE2E3FGIJ1LORWXYZ/HB1 |
Departure
| Time | 2026-05-04 09:14 |
|---|---|
| Airport | Bergen Airport, Flesland (ENBR) |
Arrival
| Time | 2026-05-04 10:56 |
|---|---|
| Airport | Frankfurt Main Airport (EDDF) |
| Time | Latitude | Longitude | Altitude | Speed | Heading |
|---|---|---|---|---|---|
| 2026-05-04 08:48 | 60.28858 | 5.22566 | 173 ft | 0 kts | 59° |
| 2026-05-04 09:05 | 60.28848 | 5.22523 | 173 ft | 4 kts | 78° |
| 2026-05-04 09:05 | 60.28845 | 5.22469 | 169 ft | 4 kts | 86° |
| 2026-05-04 09:05 | 60.28845 | 5.22451 | 168 ft | 1 kts | 83° |
| 2026-05-04 09:08 | 60.28845 | 5.22453 | 168 ft | 1 kts | 83° |
| 2026-05-04 09:08 | 60.28848 | 5.22463 | 169 ft | 1 kts | 55° |
| 2026-05-04 09:08 | 60.28864 | 5.22454 | 169 ft | 6 kts | 332° |
| 2026-05-04 09:09 | 60.28916 | 5.22390 | 166 ft | 12 kts | 322° |
| 2026-05-04 09:09 | 60.28965 | 5.22266 | 162 ft | 13 kts | 339° |
| 2026-05-04 09:09 | 60.29062 | 5.22230 | 163 ft | 15 kts | 351° |
| 2026-05-04 09:09 | 60.29167 | 5.22194 | 163 ft | 16 kts | 350° |
| 2026-05-04 09:10 | 60.29285 | 5.22155 | 162 ft | 18 kts | 350° |
| 2026-05-04 09:10 | 60.29426 | 5.22108 | 157 ft | 23 kts | 351° |
| 2026-05-04 09:10 | 60.29595 | 5.22052 | 150 ft | 27 kts | 351° |
| 2026-05-04 09:10 | 60.29788 | 5.21989 | 149 ft | 28 kts | 350° |
| 2026-05-04 09:11 | 60.29972 | 5.21926 | 156 ft | 26 kts | 350° |
| 2026-05-04 09:11 | 60.30141 | 5.21869 | 164 ft | 23 kts | 350° |
| 2026-05-04 09:11 | 60.30302 | 5.21815 | 168 ft | 23 kts | 350° |
| 2026-05-04 09:11 | 60.30449 | 5.21765 | 174 ft | 21 kts | 351° |
| 2026-05-04 09:12 | 60.30585 | 5.21721 | 180 ft | 18 kts | 351° |
| 2026-05-04 09:12 | 60.30662 | 5.21647 | 182 ft | 11 kts | 294° |
| 2026-05-04 09:14 | 60.26189 | 5.22884 | 1917 ft | 184 kts | 172° |
| 2026-05-04 09:14 | 60.24845 | 5.23327 | 2267 ft | 208 kts | 172° |
| 2026-05-04 09:14 | 60.23364 | 5.23814 | 2580 ft | 230 kts | 172° |
| 2026-05-04 09:14 | 60.21692 | 5.24364 | 2936 ft | 256 kts | 172° |
| 2026-05-04 09:15 | 60.19894 | 5.24956 | 3672 ft | 264 kts | 172° |
| 2026-05-04 09:15 | 60.18069 | 5.25563 | 4566 ft | 267 kts | 173° |
| 2026-05-04 09:15 | 60.16229 | 5.26179 | 5478 ft | 270 kts | 174° |
| 2026-05-04 09:15 | 60.14370 | 5.26802 | 6371 ft | 272 kts | 175° |
| 2026-05-04 09:17 | 59.97904 | 5.31513 | 11305 ft | 342 kts | 179° |
| 2026-05-04 09:18 | 59.95525 | 5.32151 | 12008 ft | 346 kts | 179° |
| 2026-05-04 09:18 | 59.93123 | 5.32796 | 12713 ft | 350 kts | 180° |
| 2026-05-04 09:18 | 59.90696 | 5.33449 | 13419 ft | 354 kts | 180° |
| 2026-05-04 09:18 | 59.88237 | 5.34107 | 14085 ft | 358 kts | 180° |
| 2026-05-04 09:19 | 59.85759 | 5.34766 | 14748 ft | 360 kts | 181° |
| 2026-05-04 09:19 | 59.83270 | 5.35428 | 15433 ft | 362 kts | 181° |
| 2026-05-04 09:19 | 59.80761 | 5.36092 | 16122 ft | 364 kts | 182° |
| 2026-05-04 09:19 | 59.78243 | 5.36702 | 16805 ft | 365 kts | 184° |
| 2026-05-04 09:20 | 59.75714 | 5.37176 | 17381 ft | 366 kts | 185° |
| 2026-05-04 09:20 | 59.73173 | 5.37572 | 18005 ft | 367 kts | 186° |
| 2026-05-04 09:20 | 59.70616 | 5.37941 | 18545 ft | 370 kts | 186° |
| 2026-05-04 09:20 | 59.68040 | 5.38310 | 19056 ft | 373 kts | 186° |
| 2026-05-04 09:21 | 59.65441 | 5.38699 | 19558 ft | 376 kts | 185° |
| 2026-05-04 09:21 | 59.62816 | 5.39169 | 20049 ft | 381 kts | 184° |
| 2026-05-04 09:21 | 59.60163 | 5.39788 | 20553 ft | 386 kts | 182° |
| 2026-05-04 09:21 | 59.57526 | 5.40485 | 21015 ft | 389 kts | 181° |
| 2026-05-04 09:22 | 59.54797 | 5.41237 | 21472 ft | 393 kts | 181° |
| 2026-05-04 09:22 | 59.52110 | 5.41974 | 21919 ft | 396 kts | 181° |
| 2026-05-04 09:22 | 59.49369 | 5.42705 | 22381 ft | 399 kts | 181° |
| 2026-05-04 09:22 | 59.46604 | 5.43417 | 22778 ft | 402 kts | 180° |
| 2026-05-04 09:23 | 59.43821 | 5.44122 | 23227 ft | 405 kts | 180° |
| 2026-05-04 09:23 | 59.41019 | 5.44826 | 23634 ft | 408 kts | 180° |
| 2026-05-04 09:23 | 59.38194 | 5.45608 | 23979 ft | 413 kts | 179° |
| 2026-05-04 09:23 | 59.35343 | 5.46565 | 24313 ft | 418 kts | 177° |
| 2026-05-04 09:25 | 59.14684 | 5.54298 | 26552 ft | 444 kts | 176° |
| 2026-05-04 09:25 | 59.11633 | 5.55383 | 26874 ft | 448 kts | 176° |
| 2026-05-04 09:26 | 59.08557 | 5.56480 | 27182 ft | 451 kts | 176° |
| 2026-05-04 09:26 | 59.05454 | 5.57589 | 27486 ft | 455 kts | 176° |
| 2026-05-04 09:26 | 59.02329 | 5.58708 | 27815 ft | 459 kts | 176° |
| 2026-05-04 09:26 | 58.99181 | 5.59839 | 28117 ft | 462 kts | 176° |
| 2026-05-04 09:27 | 58.96008 | 5.60977 | 28415 ft | 465 kts | 176° |
| 2026-05-04 09:27 | 58.92813 | 5.62118 | 28712 ft | 469 kts | 176° |
| 2026-05-04 09:27 | 58.89592 | 5.63260 | 28961 ft | 472 kts | 176° |
| 2026-05-04 09:27 | 58.86392 | 5.64069 | 29260 ft | 468 kts | 184° |
| 2026-05-04 09:28 | 58.83138 | 5.64281 | 29556 ft | 469 kts | 185° |
| 2026-05-04 09:28 | 58.79861 | 5.64474 | 29850 ft | 473 kts | 185° |
| 2026-05-04 09:28 | 58.76563 | 5.64674 | 30115 ft | 476 kts | 185° |
| 2026-05-04 09:28 | 58.73247 | 5.64884 | 30391 ft | 478 kts | 185° |
| 2026-05-04 09:29 | 58.69921 | 5.65100 | 30679 ft | 479 kts | 185° |
| 2026-05-04 09:29 | 58.66587 | 5.65314 | 30962 ft | 480 kts | 185° |
| 2026-05-04 09:29 | 58.63245 | 5.65524 | 31235 ft | 481 kts | 185° |
| 2026-05-04 09:29 | 58.59898 | 5.65730 | 31497 ft | 482 kts | 185° |
| 2026-05-04 09:30 | 58.56549 | 5.65934 | 31805 ft | 481 kts | 185° |
| 2026-05-04 09:30 | 58.53210 | 5.66143 | 32169 ft | 479 kts | 185° |
| 2026-05-04 09:30 | 58.49882 | 5.66352 | 32529 ft | 477 kts | 184° |
| 2026-05-04 09:30 | 58.46570 | 5.66559 | 32888 ft | 476 kts | 184° |
| 2026-05-04 09:31 | 58.43270 | 5.66763 | 33255 ft | 474 kts | 184° |
| 2026-05-04 09:31 | 58.39984 | 5.66962 | 33618 ft | 472 kts | 184° |
| 2026-05-04 09:31 | 58.36709 | 5.67160 | 33971 ft | 470 kts | 184° |
| 2026-05-04 09:31 | 58.33446 | 5.67361 | 34216 ft | 469 kts | 184° |
| 2026-05-04 09:32 | 58.30181 | 5.67561 | 34465 ft | 468 kts | 184° |
| 2026-05-04 09:32 | 58.26927 | 5.67755 | 34719 ft | 468 kts | 184° |
| 2026-05-04 09:34 | 58.04357 | 5.69104 | 36477 ft | 460 kts | 183° |
| 2026-05-04 09:34 | 58.01157 | 5.69289 | 36695 ft | 460 kts | 183° |
| 2026-05-04 09:34 | 57.97955 | 5.69480 | 36892 ft | 460 kts | 183° |
| 2026-05-04 09:34 | 57.94762 | 5.69675 | 36952 ft | 458 kts | 183° |
| 2026-05-04 09:35 | 57.88403 | 5.70063 | 36948 ft | 457 kts | 183° |
| 2026-05-04 09:35 | 57.82097 | 5.70428 | 36959 ft | 456 kts | 184° |
| 2026-05-04 09:37 | 57.56693 | 5.71918 | 36981 ft | 457 kts | 183° |
| 2026-05-04 09:38 | 57.50331 | 5.72275 | 36955 ft | 457 kts | 182° |
| 2026-05-04 09:38 | 57.43972 | 5.72644 | 36985 ft | 457 kts | 182° |
| 2026-05-04 09:39 | 57.37612 | 5.73016 | 36992 ft | 457 kts | 182° |
| 2026-05-04 09:39 | 57.31249 | 5.73386 | 37004 ft | 457 kts | 182° |
| 2026-05-04 09:40 | 57.24893 | 5.73751 | 36983 ft | 457 kts | 182° |
| 2026-05-04 09:40 | 57.18540 | 5.74114 | 37000 ft | 457 kts | 182° |
| 2026-05-04 09:42 | 56.93150 | 5.75560 | 37006 ft | 456 kts | 181° |
| 2026-05-04 09:43 | 56.86856 | 5.75920 | 37018 ft | 455 kts | 181° |
| 2026-05-04 09:43 | 56.80525 | 5.76277 | 37030 ft | 455 kts | 182° |
| 2026-05-04 09:44 | 56.74196 | 5.76616 | 37030 ft | 455 kts | 182° |
| 2026-05-04 09:46 | 56.48928 | 5.78009 | 37039 ft | 453 kts | 181° |
| 2026-05-04 09:46 | 56.42627 | 5.78356 | 37022 ft | 453 kts | 181° |
| 2026-05-04 09:47 | 56.36333 | 5.78705 | 37048 ft | 452 kts | 181° |
| 2026-05-04 09:49 | 56.11259 | 5.80073 | 37045 ft | 450 kts | 181° |
| 2026-05-04 09:51 | 55.89374 | 5.81228 | 37058 ft | 449 kts | 181° |
| 2026-05-04 09:51 | 55.83128 | 5.81564 | 37063 ft | 449 kts | 181° |
| 2026-05-04 09:52 | 55.76927 | 5.81883 | 37061 ft | 449 kts | 181° |
| 2026-05-04 09:52 | 55.70682 | 5.82215 | 37063 ft | 449 kts | 181° |
| 2026-05-04 09:53 | 55.64432 | 5.82543 | 37041 ft | 449 kts | 181° |
| 2026-05-04 09:53 | 55.58192 | 5.82870 | 37058 ft | 448 kts | 181° |
| 2026-05-04 09:54 | 55.51962 | 5.83196 | 37066 ft | 448 kts | 181° |
| 2026-05-04 09:54 | 55.46750 | 5.83473 | 37067 ft | 447 kts | 181° |
| 2026-05-04 09:55 | 55.40564 | 5.83801 | 37069 ft | 447 kts | 181° |
| 2026-05-04 09:55 | 55.34349 | 5.84127 | 37065 ft | 446 kts | 181° |
| 2026-05-04 09:56 | 55.28144 | 5.84446 | 37073 ft | 446 kts | 181° |
| 2026-05-04 09:56 | 55.21945 | 5.84763 | 37075 ft | 446 kts | 181° |
| 2026-05-04 09:57 | 55.15752 | 5.85078 | 37070 ft | 445 kts | 181° |
| 2026-05-04 09:57 | 55.09557 | 5.85391 | 37066 ft | 444 kts | 181° |
| 2026-05-04 09:58 | 55.03384 | 5.85704 | 37070 ft | 443 kts | 181° |
| 2026-05-04 09:58 | 54.97225 | 5.86094 | 37082 ft | 443 kts | 180° |
| 2026-05-04 10:00 | 54.72682 | 5.89696 | 37080 ft | 441 kts | 179° |
| 2026-05-04 10:04 | 54.30131 | 5.95468 | 37068 ft | 436 kts | 179° |
| 2026-05-04 10:04 | 54.24084 | 5.96285 | 37068 ft | 436 kts | 179° |
| 2026-05-04 10:05 | 54.18046 | 5.97089 | 37063 ft | 435 kts | 179° |
| 2026-05-04 10:05 | 54.12015 | 5.97894 | 37067 ft | 435 kts | 179° |
| 2026-05-04 10:06 | 54.05984 | 5.98707 | 37058 ft | 435 kts | 179° |
| 2026-05-04 10:06 | 53.99957 | 5.99515 | 37063 ft | 434 kts | 179° |
| 2026-05-04 10:08 | 53.78924 | 6.02273 | 37057 ft | 433 kts | 179° |
| 2026-05-04 10:08 | 53.72915 | 6.03063 | 37062 ft | 433 kts | 179° |
| 2026-05-04 10:09 | 53.66912 | 6.03857 | 37055 ft | 432 kts | 179° |
| 2026-05-04 10:09 | 53.60914 | 6.04650 | 37055 ft | 432 kts | 179° |
| 2026-05-04 10:10 | 53.54920 | 6.05434 | 37044 ft | 432 kts | 179° |
| 2026-05-04 10:10 | 53.48929 | 6.06212 | 37050 ft | 432 kts | 179° |
| 2026-05-04 10:11 | 53.42941 | 6.06989 | 37051 ft | 432 kts | 179° |
| 2026-05-04 10:11 | 53.36952 | 6.07750 | 37047 ft | 432 kts | 179° |
| 2026-05-04 10:12 | 53.30962 | 6.08524 | 37049 ft | 432 kts | 179° |
| 2026-05-04 10:12 | 53.24977 | 6.09301 | 37045 ft | 431 kts | 179° |
| 2026-05-04 10:13 | 53.18992 | 6.10072 | 37041 ft | 431 kts | 179° |
| 2026-05-04 10:13 | 53.13002 | 6.10828 | 37039 ft | 431 kts | 179° |
| 2026-05-04 10:14 | 53.07017 | 6.11577 | 37005 ft | 431 kts | 180° |
| 2026-05-04 10:16 | 52.83025 | 6.14615 | 37006 ft | 433 kts | 180° |
| 2026-05-04 10:16 | 52.77030 | 6.15368 | 37021 ft | 431 kts | 180° |
| 2026-05-04 10:17 | 52.71093 | 6.16113 | 37024 ft | 431 kts | 180° |
| 2026-05-04 10:19 | 52.47307 | 6.19078 | 37035 ft | 425 kts | 180° |
| 2026-05-04 10:19 | 52.41424 | 6.19803 | 37027 ft | 423 kts | 180° |
| 2026-05-04 10:20 | 52.35556 | 6.20520 | 37010 ft | 422 kts | 180° |
| 2026-05-04 10:20 | 52.29708 | 6.21236 | 37022 ft | 421 kts | 180° |
| 2026-05-04 10:21 | 52.23884 | 6.21948 | 37025 ft | 419 kts | 180° |
| 2026-05-04 10:21 | 52.18068 | 6.22656 | 37029 ft | 419 kts | 180° |
| 2026-05-04 10:22 | 52.09370 | 6.23716 | 37016 ft | 417 kts | 180° |
| 2026-05-04 10:23 | 52.03582 | 6.24425 | 37019 ft | 416 kts | 180° |
| 2026-05-04 10:25 | 51.83172 | 6.42801 | 36989 ft | 438 kts | 147° |
| 2026-05-04 10:25 | 51.78418 | 6.48963 | 36999 ft | 438 kts | 147° |
| 2026-05-04 10:26 | 51.73691 | 6.55078 | 37007 ft | 439 kts | 147° |
| 2026-05-04 10:26 | 51.68930 | 6.61231 | 37003 ft | 438 kts | 147° |
| 2026-05-04 10:27 | 51.64171 | 6.67398 | 36554 ft | 442 kts | 147° |
| 2026-05-04 10:27 | 51.61752 | 6.70516 | 35779 ft | 445 kts | 147° |
| 2026-05-04 10:27 | 51.59352 | 6.73605 | 35342 ft | 440 kts | 147° |
| 2026-05-04 10:27 | 51.56970 | 6.76663 | 34838 ft | 436 kts | 147° |
| 2026-05-04 10:28 | 51.54612 | 6.79685 | 34389 ft | 432 kts | 147° |
| 2026-05-04 10:28 | 51.52268 | 6.82692 | 33903 ft | 429 kts | 147° |
| 2026-05-04 10:28 | 51.49944 | 6.85670 | 33400 ft | 425 kts | 147° |
| 2026-05-04 10:28 | 51.47643 | 6.88611 | 32940 ft | 420 kts | 148° |
| 2026-05-04 10:29 | 51.45370 | 6.91509 | 32462 ft | 416 kts | 148° |
| 2026-05-04 10:29 | 51.43115 | 6.94379 | 31999 ft | 411 kts | 148° |
| 2026-05-04 10:29 | 51.40889 | 6.97205 | 31548 ft | 407 kts | 148° |
| 2026-05-04 10:29 | 51.38682 | 7.00003 | 31096 ft | 403 kts | 148° |
| 2026-05-04 10:30 | 51.36491 | 7.02777 | 30656 ft | 399 kts | 149° |
| 2026-05-04 10:30 | 51.34324 | 7.05523 | 30220 ft | 396 kts | 149° |
| 2026-05-04 10:30 | 51.32170 | 7.08244 | 29755 ft | 393 kts | 149° |
| 2026-05-04 10:30 | 51.30040 | 7.10933 | 29339 ft | 388 kts | 149° |
| 2026-05-04 10:31 | 51.27938 | 7.13587 | 28924 ft | 382 kts | 150° |
| 2026-05-04 10:31 | 51.25756 | 7.15870 | 28530 ft | 369 kts | 159° |
| 2026-05-04 10:32 | 51.12608 | 7.26284 | 26335 ft | 341 kts | 160° |
| 2026-05-04 10:33 | 51.10495 | 7.27965 | 25975 ft | 338 kts | 159° |
| 2026-05-04 10:33 | 51.08410 | 7.29663 | 25610 ft | 335 kts | 159° |
| 2026-05-04 10:33 | 51.06349 | 7.31369 | 25245 ft | 333 kts | 158° |
| 2026-05-04 10:33 | 51.04303 | 7.33068 | 24876 ft | 332 kts | 158° |
| 2026-05-04 10:34 | 51.02199 | 7.34805 | 24454 ft | 348 kts | 158° |
| 2026-05-04 10:34 | 51.00034 | 7.36590 | 24028 ft | 352 kts | 158° |
| 2026-05-04 10:34 | 50.97895 | 7.38357 | 23603 ft | 351 kts | 158° |
| 2026-05-04 10:34 | 50.95734 | 7.40147 | 23127 ft | 349 kts | 157° |
| 2026-05-04 10:35 | 50.93583 | 7.41924 | 22697 ft | 347 kts | 157° |
| 2026-05-04 10:35 | 50.91445 | 7.43682 | 22283 ft | 345 kts | 157° |
| 2026-05-04 10:35 | 50.89320 | 7.45425 | 21857 ft | 343 kts | 157° |
| 2026-05-04 10:35 | 50.87211 | 7.47148 | 21449 ft | 340 kts | 157° |
| 2026-05-04 10:36 | 50.85113 | 7.48862 | 21031 ft | 338 kts | 157° |
| 2026-05-04 10:36 | 50.83030 | 7.50565 | 20612 ft | 336 kts | 157° |
| 2026-05-04 10:36 | 50.80963 | 7.52254 | 20179 ft | 334 kts | 157° |
| 2026-05-04 10:36 | 50.78900 | 7.53935 | 19801 ft | 333 kts | 157° |
| 2026-05-04 10:37 | 50.76845 | 7.55604 | 19398 ft | 331 kts | 157° |
| 2026-05-04 10:37 | 50.74806 | 7.57260 | 19002 ft | 329 kts | 156° |
| 2026-05-04 10:37 | 50.72780 | 7.58908 | 18617 ft | 326 kts | 156° |
| 2026-05-04 10:37 | 50.70772 | 7.60543 | 18193 ft | 324 kts | 156° |
| 2026-05-04 10:39 | 50.63099 | 7.77003 | 15458 ft | 326 kts | 114° |
| 2026-05-04 10:39 | 50.62318 | 7.80351 | 15008 ft | 324 kts | 114° |
| 2026-05-04 10:39 | 50.61540 | 7.83669 | 14567 ft | 322 kts | 114° |
| 2026-05-04 10:40 | 50.60762 | 7.86960 | 14156 ft | 319 kts | 114° |
| 2026-05-04 10:40 | 50.59987 | 7.90221 | 13752 ft | 317 kts | 114° |
| 2026-05-04 10:40 | 50.59205 | 7.93455 | 13276 ft | 314 kts | 115° |
| 2026-05-04 10:40 | 50.58149 | 7.96421 | 12788 ft | 310 kts | 125° |
| 2026-05-04 10:41 | 50.57025 | 7.99253 | 12324 ft | 309 kts | 124° |
| 2026-05-04 10:41 | 50.55898 | 8.02115 | 11886 ft | 307 kts | 124° |
| 2026-05-04 10:41 | 50.54776 | 8.04965 | 11437 ft | 306 kts | 124° |
| 2026-05-04 10:41 | 50.53658 | 8.07797 | 11005 ft | 304 kts | 124° |
| 2026-05-04 10:42 | 50.52544 | 8.10608 | 10583 ft | 302 kts | 124° |
| 2026-05-04 10:42 | 50.51431 | 8.13404 | 10170 ft | 301 kts | 124° |
| 2026-05-04 10:42 | 50.50329 | 8.16168 | 9986 ft | 296 kts | 124° |
| 2026-05-04 10:42 | 50.49238 | 8.18906 | 9998 ft | 296 kts | 125° |
| 2026-05-04 10:43 | 50.48146 | 8.21643 | 9998 ft | 296 kts | 125° |
| 2026-05-04 10:44 | 50.40877 | 8.39836 | 10006 ft | 297 kts | 125° |
| 2026-05-04 10:45 | 50.39780 | 8.42576 | 10006 ft | 296 kts | 125° |
| 2026-05-04 10:45 | 50.38683 | 8.45312 | 9993 ft | 296 kts | 125° |
| 2026-05-04 10:45 | 50.37585 | 8.48044 | 10002 ft | 296 kts | 125° |
| 2026-05-04 10:45 | 50.36486 | 8.50771 | 9997 ft | 297 kts | 125° |
| 2026-05-04 10:46 | 50.35384 | 8.53498 | 10001 ft | 297 kts | 125° |
| 2026-05-04 10:46 | 50.34280 | 8.56233 | 9775 ft | 296 kts | 125° |
| 2026-05-04 10:46 | 50.33185 | 8.58945 | 9508 ft | 294 kts | 125° |
| 2026-05-04 10:46 | 50.32099 | 8.61631 | 9226 ft | 290 kts | 125° |
| 2026-05-04 10:47 | 50.31024 | 8.64285 | 8907 ft | 289 kts | 125° |
| 2026-05-04 10:47 | 50.29949 | 8.66934 | 8586 ft | 288 kts | 125° |
| 2026-05-04 10:47 | 50.28881 | 8.69571 | 8297 ft | 286 kts | 125° |
| 2026-05-04 10:47 | 50.27817 | 8.72192 | 7998 ft | 285 kts | 125° |
| 2026-05-04 10:49 | 50.19318 | 8.88205 | 5696 ft | 271 kts | 154° |
| 2026-05-04 10:49 | 50.17678 | 8.89592 | 5324 ft | 266 kts | 154° |
| 2026-05-04 10:50 | 50.16056 | 8.90967 | 4924 ft | 260 kts | 154° |
| 2026-05-04 10:51 | 50.09299 | 8.81007 | 3391 ft | 221 kts | 250° |
| 2026-05-04 10:52 | 50.08770 | 8.78763 | 3061 ft | 222 kts | 249° |
| 2026-05-04 10:52 | 50.08236 | 8.76499 | 2763 ft | 221 kts | 249° |
| 2026-05-04 10:52 | 50.07726 | 8.74342 | 2481 ft | 201 kts | 248° |
| 2026-05-04 10:54 | 50.05651 | 8.63489 | 1083 ft | 138 kts | 250° |
| 2026-05-04 10:54 | 50.05320 | 8.62090 | 856 ft | 138 kts | 250° |
| 2026-05-04 10:56 | 50.03894 | 8.55772 | 354 ft | 3 kts | 280° |
| 2026-05-04 10:56 | 50.03899 | 8.55725 | 353 ft | 5 kts | 280° |
| 2026-05-04 10:56 | 50.03909 | 8.55663 | 353 ft | 2 kts | 290° |
| 2026-05-04 10:57 | 50.03917 | 8.55641 | 351 ft | 4 kts | 304° |
| 2026-05-04 10:57 | 50.03946 | 8.55616 | 350 ft | 6 kts | 349° |
| 2026-05-04 10:57 | 50.03978 | 8.55644 | 355 ft | 5 kts | 59° |
| 2026-05-04 10:57 | 50.03993 | 8.55709 | 349 ft | 7 kts | 72° |
| 2026-05-04 10:58 | 50.04011 | 8.55794 | 359 ft | 9 kts | 70° |
| 2026-05-04 10:58 | 50.04035 | 8.55895 | 352 ft | 11 kts | 69° |
| 2026-05-04 10:58 | 50.04064 | 8.56012 | 353 ft | 12 kts | 69° |
| 2026-05-04 10:58 | 50.04094 | 8.56144 | 354 ft | 14 kts | 70° |
| 2026-05-04 10:59 | 50.04130 | 8.56293 | 355 ft | 15 kts | 69° |
| 2026-05-04 10:59 | 50.04169 | 8.56454 | 359 ft | 16 kts | 70° |
| 2026-05-04 10:59 | 50.04210 | 8.56624 | 361 ft | 17 kts | 70° |
| 2026-05-04 10:59 | 50.04251 | 8.56794 | 360 ft | 17 kts | 70° |
| 2026-05-04 11:00 | 50.04293 | 8.56973 | 364 ft | 19 kts | 70° |
| 2026-05-04 11:01 | 50.04676 | 8.58579 | 371 ft | 26 kts | 69° |
| 2026-05-04 11:02 | 50.04737 | 8.58812 | 371 ft | 11 kts | 68° |
| 2026-05-04 11:02 | 50.04765 | 8.58871 | 372 ft | 7 kts | 6° |